createdAt,value
2022-10-28T00:01:30.122Z,6.15
2022-10-28T00:04:01.619Z,6.53
2022-10-28T00:06:33.266Z,6.63
2022-10-28T00:09:02.332Z,6.95
2022-10-28T00:11:35.461Z,7.03
2022-10-28T00:14:07.272Z,6.82
2022-10-28T00:16:37.945Z,6.32
2022-10-28T00:19:08.462Z,6.72
2022-10-28T00:21:39.718Z,6.38
2022-10-28T00:24:10.401Z,6.80
2022-10-28T00:26:42.370Z,5.88
2022-10-28T00:29:13.199Z,6.80
2022-10-28T00:31:42.220Z,6.50
2022-10-28T00:34:14.191Z,6.57
2022-10-28T00:36:44.983Z,8.48
2022-10-28T00:39:16.166Z,15.70
2022-10-28T00:41:48.955Z,7.30
2022-10-28T00:44:58.149Z,8.52
2022-10-28T00:47:55.232Z,6.18
2022-10-28T00:50:51.881Z,6.20
2022-10-28T00:53:27.537Z,6.53
2022-10-28T00:55:58.054Z,6.05
2022-10-28T00:58:28.745Z,5.90
2022-10-28T01:00:57.560Z,5.72
2022-10-28T01:03:26.603Z,5.90
2022-10-28T01:05:55.466Z,6.30
2022-10-28T01:08:23.768Z,6.22
2022-10-28T01:11:41.371Z,6.63
2022-10-28T01:14:24.245Z,5.80
2022-10-28T01:17:19.309Z,6.68
2022-10-28T01:20:45.261Z,6.18
2022-10-28T01:23:27.448Z,6.50
2022-10-28T01:26:40.050Z,5.95
2022-10-28T01:30:06.637Z,6.50
2022-10-28T01:32:56.830Z,6.00
2022-10-28T01:35:35.794Z,6.35
2022-10-28T01:38:23.496Z,6.55
2022-10-28T01:41:05.000Z,6.70
2022-10-28T01:43:46.377Z,6.85
2022-10-28T01:46:22.749Z,6.68
2022-10-28T01:48:58.641Z,7.15
2022-10-28T01:51:33.725Z,6.47
2022-10-28T01:54:07.454Z,6.63
2022-10-28T01:56:42.209Z,6.40
2022-10-28T01:59:15.672Z,6.35
2022-10-28T02:01:43.988Z,6.22
2022-10-28T02:04:13.580Z,6.70
2022-10-28T02:06:45.338Z,6.70
2022-10-28T02:09:35.201Z,6.78
2022-10-28T02:12:26.238Z,6.45
2022-10-28T02:15:24.219Z,6.88
2022-10-28T02:18:13.577Z,6.80
2022-10-28T02:20:54.285Z,7.47
2022-10-28T02:23:34.101Z,7.63
2022-10-28T02:26:11.361Z,7.57
2022-10-28T02:28:48.494Z,6.85
2022-10-28T02:31:24.921Z,7.68
2022-10-28T02:34:00.096Z,6.72
2022-10-28T02:36:36.325Z,6.88
2022-10-28T02:39:07.675Z,7.63
2022-10-28T02:41:45.872Z,7.13
2022-10-28T02:44:24.858Z,7.20
2022-10-28T02:46:56.925Z,6.60
2022-10-28T02:49:27.614Z,6.65
2022-10-28T02:52:03.189Z,7.00
2022-10-28T02:54:37.231Z,7.03
2022-10-28T02:57:11.318Z,9.10
2022-10-28T02:59:39.495Z,8.48
2022-10-28T03:02:08.274Z,8.32
2022-10-28T03:04:36.478Z,8.38
2022-10-28T03:07:05.938Z,7.88
2022-10-28T03:09:34.089Z,7.60
2022-10-28T03:12:02.263Z,7.22
2022-10-28T03:14:30.430Z,7.90
2022-10-28T03:16:58.698Z,7.65
2022-10-28T03:19:26.794Z,7.05
2022-10-28T03:21:55.687Z,7.18
2022-10-28T03:24:25.188Z,7.63
2022-10-28T03:26:53.331Z,7.38
2022-10-28T03:29:21.431Z,7.25
2022-10-28T03:31:49.537Z,8.00
2022-10-28T03:34:17.839Z,7.63
2022-10-28T03:36:46.303Z,7.30
2022-10-28T03:39:16.066Z,7.28
2022-10-28T03:41:45.541Z,7.10
2022-10-28T03:44:13.697Z,8.20
2022-10-28T03:46:41.915Z,7.80
2022-10-28T03:49:10.040Z,7.38
2022-10-28T03:51:38.183Z,7.82
2022-10-28T03:54:06.350Z,7.45
2022-10-28T03:56:34.567Z,7.75
2022-10-28T03:59:04.063Z,8.20
2022-10-28T04:01:32.328Z,8.32
2022-10-28T04:04:00.465Z,7.88
2022-10-28T04:06:28.726Z,7.93
2022-10-28T04:08:57.204Z,7.93
2022-10-28T04:11:25.398Z,8.30
2022-10-28T04:13:53.544Z,9.77
2022-10-28T04:16:23.011Z,8.55
2022-10-28T04:18:51.070Z,7.60
2022-10-28T04:21:19.304Z,8.30
2022-10-28T04:23:47.589Z,8.13
2022-10-28T04:26:15.811Z,8.25
2022-10-28T04:28:44.153Z,7.97
2022-10-28T04:31:13.094Z,7.88
2022-10-28T04:33:42.686Z,8.73
2022-10-28T04:36:10.896Z,8.00
2022-10-28T04:38:39.141Z,7.63
2022-10-28T04:41:07.266Z,8.07
2022-10-28T04:43:35.548Z,7.53
2022-10-28T04:46:05.986Z,7.18
2022-10-28T04:48:34.241Z,8.85
2022-10-28T04:51:04.217Z,7.88
2022-10-28T04:53:32.363Z,7.63
2022-10-28T04:56:01.365Z,8.00
2022-10-28T04:58:29.771Z,8.38
2022-10-28T05:00:57.954Z,8.90
2022-10-28T05:03:26.076Z,8.20
2022-10-28T05:05:54.184Z,7.65
2022-10-28T05:08:23.689Z,7.65
2022-10-28T05:10:51.852Z,7.70
2022-10-28T05:13:20.306Z,8.05
2022-10-28T05:15:49.609Z,8.30
2022-10-28T05:18:18.058Z,7.72
2022-10-28T05:20:46.330Z,7.68
2022-10-28T05:23:15.089Z,7.28
2022-10-28T05:25:45.520Z,8.18
2022-10-28T05:28:13.847Z,7.07
2022-10-28T05:30:42.019Z,8.40
2022-10-28T05:33:11.079Z,7.63
2022-10-28T05:35:39.736Z,7.68
2022-10-28T05:38:08.123Z,7.45
2022-10-28T05:40:36.259Z,7.95
2022-10-28T05:43:05.950Z,8.25
2022-10-28T05:45:34.080Z,8.20
2022-10-28T05:48:02.286Z,8.18
2022-10-28T05:50:30.586Z,8.10
2022-10-28T05:52:59.165Z,8.38
2022-10-28T05:55:29.701Z,7.57
2022-10-28T05:57:58.364Z,8.43
2022-10-28T06:00:28.575Z,8.88
2022-10-28T06:03:04.057Z,9.00
2022-10-28T06:05:32.246Z,7.88
2022-10-28T06:08:00.328Z,7.90
2022-10-28T06:10:28.412Z,7.90
2022-10-28T06:12:55.546Z,8.10
2022-10-28T06:15:25.776Z,8.40
2022-10-28T06:17:54.024Z,8.68
2022-10-28T06:20:22.404Z,8.68
2022-10-28T06:22:52.633Z,8.30
2022-10-28T06:25:23.278Z,8.57
2022-10-28T06:27:55.909Z,10.10
2022-10-28T06:30:27.486Z,9.43
2022-10-28T06:32:57.511Z,9.50
2022-10-28T06:35:25.737Z,9.18
2022-10-28T06:37:55.003Z,8.32
2022-10-28T06:40:25.264Z,9.02
2022-10-28T06:42:57.919Z,8.93
2022-10-28T06:45:27.910Z,9.13
2022-10-28T06:47:59.232Z,9.48
2022-10-28T06:50:28.300Z,8.93
2022-10-28T06:52:57.817Z,9.02
2022-10-28T06:55:26.520Z,8.88
2022-10-28T06:57:55.129Z,8.68
2022-10-28T07:00:23.805Z,8.57
2022-10-28T07:02:54.339Z,8.43
2022-10-28T07:05:24.811Z,7.95
2022-10-28T07:07:53.979Z,8.80
2022-10-28T07:10:22.362Z,8.60
2022-10-28T07:12:50.468Z,8.88
2022-10-28T07:15:18.699Z,8.85
2022-10-28T07:17:54.949Z,9.25
2022-10-28T07:20:24.982Z,8.00
2022-10-28T07:22:57.958Z,8.52
2022-10-28T07:25:26.210Z,9.63
2022-10-28T07:27:54.908Z,8.27
2022-10-28T07:30:23.436Z,7.60
2022-10-28T07:32:52.038Z,7.70
2022-10-28T07:35:22.228Z,7.53
2022-10-28T07:37:50.532Z,7.72
2022-10-28T07:40:19.337Z,7.47
2022-10-28T07:42:47.502Z,7.50
2022-10-28T07:45:16.796Z,7.78
2022-10-28T07:47:45.287Z,7.32
2022-10-28T07:50:14.380Z,7.82
2022-10-28T07:52:44.167Z,7.35
2022-10-28T07:55:13.289Z,7.20
2022-10-28T07:57:41.449Z,7.50
2022-10-28T08:00:11.229Z,6.32
2022-10-28T08:02:40.069Z,7.47
2022-10-28T08:05:09.394Z,6.95
2022-10-28T08:07:38.762Z,6.88
2022-10-28T08:10:09.715Z,7.43
2022-10-28T08:12:37.877Z,8.05
2022-10-28T08:15:09.507Z,7.20
2022-10-28T08:17:37.755Z,6.25
2022-10-28T08:20:07.294Z,6.93
2022-10-28T08:22:35.411Z,7.30
2022-10-28T08:25:03.587Z,7.18
2022-10-28T08:27:33.470Z,7.47
2022-10-28T08:30:01.622Z,6.22
2022-10-28T08:32:29.766Z,6.60
2022-10-28T08:34:57.923Z,7.30
2022-10-28T08:37:26.238Z,7.28
2022-10-28T08:39:54.434Z,6.32
2022-10-28T08:42:41.017Z,7.20
2022-10-28T08:45:32.653Z,6.63
2022-10-28T08:48:19.471Z,6.18
2022-10-28T08:50:53.943Z,7.32
2022-10-28T08:53:29.475Z,6.82
2022-10-28T08:56:14.251Z,7.22
2022-10-28T08:58:46.114Z,6.90
2022-10-28T09:01:38.857Z,6.75
2022-10-28T09:04:21.437Z,6.65
2022-10-28T09:06:49.648Z,6.75
2022-10-28T09:09:22.062Z,6.35
2022-10-28T09:12:22.380Z,5.85
2022-10-28T09:15:19.025Z,6.25
2022-10-28T09:17:55.148Z,7.03
2022-10-28T09:20:44.515Z,6.28
2022-10-28T09:23:23.300Z,6.78
2022-10-28T09:26:13.940Z,6.45
2022-10-28T09:28:57.821Z,6.05
2022-10-28T09:31:35.896Z,6.53
2022-10-28T09:34:19.115Z,5.85
2022-10-28T09:36:51.940Z,6.20
2022-10-28T09:39:27.675Z,5.80
2022-10-28T09:42:00.883Z,6.65
2022-10-28T09:44:40.824Z,6.10
2022-10-28T09:47:18.324Z,5.63
2022-10-28T09:49:50.213Z,5.85
2022-10-28T09:52:23.988Z,5.63
2022-10-28T09:54:54.405Z,5.30
2022-10-28T09:57:28.886Z,6.70
2022-10-28T09:59:57.112Z,5.60
2022-10-28T10:02:31.568Z,5.38
2022-10-28T10:05:02.812Z,4.53
2022-10-28T10:07:37.717Z,4.97
2022-10-28T10:10:14.172Z,4.55
2022-10-28T10:12:42.409Z,4.60
2022-10-28T10:15:20.202Z,4.97
2022-10-28T10:17:50.711Z,4.28
2022-10-28T10:20:21.082Z,4.57
2022-10-28T10:22:50.566Z,4.80
2022-10-28T10:25:31.042Z,4.13
2022-10-28T10:28:03.493Z,4.22
2022-10-28T10:30:37.236Z,5.10
2022-10-28T10:33:15.865Z,3.88
2022-10-28T10:35:44.021Z,4.15
2022-10-28T10:38:17.133Z,5.03
2022-10-28T10:40:51.329Z,4.30
2022-10-28T10:43:30.581Z,4.15
2022-10-28T10:46:05.574Z,4.30
2022-10-28T10:48:36.973Z,4.80
2022-10-28T10:51:16.356Z,4.13
2022-10-28T10:53:51.339Z,3.83
2022-10-28T10:56:28.338Z,4.80
2022-10-28T10:59:01.870Z,4.25
2022-10-28T11:01:37.006Z,4.45
2022-10-28T11:04:09.483Z,4.65
2022-10-28T11:06:41.902Z,4.72
2022-10-28T11:09:25.639Z,4.50
2022-10-28T11:11:55.757Z,4.32
2022-10-28T11:14:28.920Z,4.60
2022-10-28T11:16:59.654Z,4.18
2022-10-28T11:19:33.558Z,5.30
2022-10-28T11:22:27.517Z,3.97
2022-10-28T11:25:26.285Z,3.90
2022-10-28T11:28:12.242Z,4.45
2022-10-28T11:30:56.770Z,5.30
2022-10-28T11:33:40.176Z,4.38
2022-10-28T11:36:22.791Z,4.32
2022-10-28T11:39:17.822Z,4.63
2022-10-28T11:42:02.659Z,4.82
2022-10-28T11:44:46.312Z,4.72
2022-10-28T11:47:55.720Z,4.55
2022-10-28T11:50:55.222Z,4.63
2022-10-28T11:54:02.151Z,3.83
2022-10-28T11:56:39.281Z,5.22
2022-10-28T11:59:44.453Z,4.50
2022-10-28T12:02:36.297Z,4.75
2022-10-28T12:05:14.639Z,4.70
2022-10-28T12:08:07.012Z,5.10
2022-10-28T12:10:54.985Z,4.40
2022-10-28T12:13:36.869Z,4.60
2022-10-28T12:16:14.173Z,4.38
2022-10-28T12:18:56.669Z,4.43
2022-10-28T12:24:10.485Z,4.28
2022-10-28T12:26:46.666Z,4.47
2022-10-28T12:29:22.347Z,4.25
2022-10-28T12:31:57.271Z,4.30
2022-10-28T12:34:34.161Z,5.38
2022-10-28T12:37:09.057Z,5.15
2022-10-28T12:39:47.720Z,4.55
2022-10-28T12:42:25.669Z,3.88
2022-10-28T12:44:59.340Z,4.47
2022-10-28T12:47:42.160Z,4.25
2022-10-28T12:50:26.028Z,4.55
2022-10-28T12:53:07.031Z,5.43
2022-10-28T12:55:41.074Z,4.50
2022-10-28T12:58:22.418Z,5.05
2022-10-28T13:00:56.321Z,4.43
2022-10-28T13:03:24.469Z,4.78
2022-10-28T13:06:07.300Z,4.85
2022-10-28T13:09:17.731Z,5.30
2022-10-28T13:12:25.494Z,4.90
2022-10-28T13:15:50.674Z,5.10
2022-10-28T13:18:55.248Z,4.07
2022-10-28T13:21:45.804Z,5.22
2022-10-28T13:24:21.057Z,5.15
2022-10-28T13:26:50.511Z,5.32
2022-10-28T13:29:24.727Z,4.90
2022-10-28T13:31:56.159Z,4.95
2022-10-28T13:34:34.949Z,4.15
2022-10-28T13:37:06.986Z,4.63
2022-10-28T13:39:45.294Z,4.30
2022-10-28T13:42:47.765Z,4.53
2022-10-28T13:45:53.652Z,4.72
2022-10-28T13:48:55.031Z,4.25
2022-10-28T13:51:47.333Z,4.50
2022-10-28T13:54:33.462Z,4.45
2022-10-28T13:57:14.481Z,4.50
2022-10-28T13:59:57.490Z,4.80
2022-10-28T14:02:36.600Z,4.63
2022-10-28T14:05:10.701Z,4.30
2022-10-28T14:07:52.806Z,4.07
2022-10-28T14:10:25.913Z,5.03
2022-10-28T14:12:57.871Z,5.30
2022-10-28T14:15:31.165Z,4.57
2022-10-28T14:18:15.970Z,4.80
2022-10-28T14:21:01.378Z,5.55
2022-10-28T14:24:11.066Z,5.63
2022-10-28T14:27:21.585Z,5.25
2022-10-28T14:30:11.814Z,4.70
2022-10-28T14:32:44.291Z,5.38
2022-10-28T14:35:28.355Z,5.47
2022-10-28T14:38:39.623Z,4.70
2022-10-28T14:41:27.239Z,5.22
2022-10-28T14:44:09.284Z,4.70
2022-10-28T14:46:59.356Z,5.28
2022-10-28T14:49:32.233Z,4.93
2022-10-28T14:52:10.740Z,5.13
2022-10-28T14:54:49.955Z,5.13
2022-10-28T14:57:22.205Z,4.57
2022-10-28T14:59:52.120Z,6.13
2022-10-28T15:02:24.166Z,5.38
2022-10-28T15:05:03.463Z,5.90
2022-10-28T15:07:37.835Z,5.38
2022-10-28T15:10:18.393Z,5.95
2022-10-28T15:12:49.938Z,5.25
2022-10-28T15:15:20.960Z,5.50
2022-10-28T15:17:50.000Z,5.38
2022-10-28T15:20:24.962Z,5.95
2022-10-28T15:22:55.008Z,5.00
2022-10-28T15:25:25.660Z,5.93
2022-10-28T15:27:54.985Z,5.63
2022-10-28T15:30:26.434Z,5.68
2022-10-28T15:32:56.147Z,5.55
2022-10-28T15:35:40.808Z,6.78
2022-10-28T15:38:39.571Z,5.68
2022-10-28T15:41:52.304Z,6.65
2022-10-28T15:44:36.690Z,4.95
2022-10-28T15:47:25.188Z,5.60
2022-10-28T15:50:20.836Z,5.55
2022-10-28T15:52:50.179Z,6.00
2022-10-28T15:56:02.499Z,6.30
2022-10-28T15:58:40.715Z,6.25
2022-10-28T16:01:27.477Z,5.40
2022-10-28T16:03:55.886Z,5.53
2022-10-28T16:06:29.013Z,5.38
2022-10-28T16:09:13.564Z,5.63
2022-10-28T16:11:46.247Z,5.13
2022-10-28T16:14:39.029Z,5.43
2022-10-28T16:17:20.170Z,5.30
2022-10-28T16:19:54.246Z,6.43
2022-10-28T16:22:25.492Z,5.35
2022-10-28T16:24:55.137Z,4.97
2022-10-28T16:27:25.869Z,5.45
2022-10-28T16:29:55.534Z,5.32
2022-10-28T16:32:30.862Z,5.82
2022-10-28T16:35:01.135Z,6.15
2022-10-28T16:37:32.745Z,5.72
2022-10-28T16:40:00.849Z,6.15
2022-10-28T16:42:29.090Z,5.80
2022-10-28T16:44:58.767Z,6.10
2022-10-28T16:47:27.448Z,6.18
2022-10-28T16:49:57.519Z,6.00
2022-10-28T16:52:29.566Z,5.40
2022-10-28T16:54:59.053Z,6.20
2022-10-28T16:57:27.661Z,5.60
2022-10-28T16:59:55.915Z,5.93
2022-10-28T17:02:29.176Z,5.28
2022-10-28T17:04:58.485Z,6.25
2022-10-28T17:07:27.408Z,5.82
2022-10-28T17:09:56.780Z,5.68
2022-10-28T17:12:28.184Z,5.32
2022-10-28T17:14:56.353Z,5.40
2022-10-28T17:17:25.906Z,5.43
2022-10-28T17:19:53.979Z,6.10
2022-10-28T17:22:22.683Z,5.55
2022-10-28T17:24:50.770Z,5.35
2022-10-28T17:27:19.194Z,6.15
2022-10-28T17:29:47.389Z,5.38
2022-10-28T17:32:15.685Z,5.90
2022-10-28T17:34:45.322Z,6.07
2022-10-28T17:37:13.426Z,6.47
2022-10-28T17:39:42.349Z,6.15
2022-10-28T17:42:10.804Z,5.55
2022-10-28T17:44:38.994Z,5.93
2022-10-28T17:47:07.079Z,5.90
2022-10-28T17:49:36.376Z,6.78
2022-10-28T17:52:05.866Z,6.40
2022-10-28T17:54:33.952Z,5.93
2022-10-28T17:57:02.027Z,5.80
2022-10-28T17:59:30.125Z,6.43
2022-10-28T18:01:58.341Z,6.65
2022-10-28T18:04:26.977Z,6.45
2022-10-28T18:06:58.158Z,6.07
2022-10-28T18:09:31.560Z,6.20
2022-10-28T18:12:00.955Z,6.07
2022-10-28T18:14:29.417Z,6.55
2022-10-28T18:16:57.546Z,6.72
2022-10-28T18:19:25.797Z,5.82
2022-10-28T18:21:53.967Z,6.30
2022-10-28T18:24:25.055Z,5.75
2022-10-28T18:26:57.686Z,7.35
2022-10-28T18:29:25.912Z,5.88
2022-10-28T18:31:54.082Z,6.88
2022-10-28T18:34:23.639Z,6.20
2022-10-28T18:36:52.374Z,5.85
2022-10-28T18:39:20.450Z,6.45
2022-10-28T18:41:48.653Z,7.30
2022-10-28T18:44:21.512Z,6.45
2022-10-28T18:46:51.206Z,7.00
2022-10-28T18:49:19.373Z,6.93
2022-10-28T18:51:47.546Z,6.93
2022-10-28T18:54:15.789Z,6.28
2022-10-28T18:56:47.612Z,6.55
2022-10-28T18:59:18.135Z,7.10
2022-10-28T19:01:46.960Z,7.07
2022-10-28T19:04:15.799Z,6.80
2022-10-28T19:06:43.954Z,6.93
2022-10-28T19:09:12.064Z,6.55
2022-10-28T19:11:40.242Z,6.53
2022-10-28T19:14:09.185Z,7.18
2022-10-28T19:16:38.636Z,7.32
2022-10-28T19:19:07.064Z,7.30
2022-10-28T19:21:35.462Z,7.88
2022-10-28T19:24:05.204Z,7.07
2022-10-28T19:26:34.241Z,7.55
2022-10-28T19:29:04.497Z,7.93
2022-10-28T19:31:39.474Z,7.45
2022-10-28T19:34:07.576Z,7.15
2022-10-28T19:36:35.652Z,7.63
2022-10-28T19:39:04.945Z,7.07
2022-10-28T19:41:33.692Z,8.05
2022-10-28T19:44:04.262Z,7.97
2022-10-28T19:46:35.616Z,7.57
2022-10-28T19:49:07.368Z,8.70
2022-10-28T19:51:38.491Z,8.95
2022-10-28T19:54:10.587Z,8.00
2022-10-28T19:56:40.163Z,8.50
2022-10-28T19:59:08.625Z,7.85
2022-10-28T20:01:39.811Z,8.02
2022-10-28T20:04:10.709Z,8.43
2022-10-28T20:06:41.334Z,8.90
2022-10-28T20:09:09.970Z,8.40
2022-10-28T20:11:39.997Z,8.60
2022-10-28T20:14:11.627Z,8.13
2022-10-28T20:16:43.179Z,8.95
2022-10-28T20:19:13.562Z,9.43
2022-10-28T20:21:41.668Z,9.02
2022-10-28T20:24:09.967Z,9.10
2022-10-28T20:26:39.471Z,8.90
2022-10-28T20:29:08.714Z,9.07
2022-10-28T20:31:38.764Z,9.05
2022-10-28T20:34:07.656Z,8.77
2022-10-28T20:36:39.696Z,8.75
2022-10-28T20:39:15.207Z,9.93
2022-10-28T20:41:45.252Z,8.15
2022-10-28T20:44:13.919Z,9.43
2022-10-28T20:46:42.257Z,9.10
2022-10-28T20:49:10.569Z,9.07
2022-10-28T20:51:40.285Z,10.02
2022-10-28T20:54:08.753Z,8.40
2022-10-28T20:56:40.239Z,9.45
2022-10-28T20:59:08.845Z,9.93
2022-10-28T21:01:40.579Z,9.18
2022-10-28T21:04:11.910Z,10.50
2022-10-28T21:06:41.611Z,9.82
2022-10-28T21:09:11.633Z,9.43
2022-10-28T21:11:39.840Z,10.80
2022-10-28T21:14:08.238Z,9.80
2022-10-28T21:16:36.444Z,10.48
2022-10-28T21:19:04.892Z,10.40
2022-10-28T21:21:33.007Z,9.95
2022-10-28T21:24:02.555Z,10.95
2022-10-28T21:26:30.746Z,10.07
2022-10-28T21:28:58.922Z,10.27
2022-10-28T21:31:28.177Z,11.02
2022-10-28T21:33:56.371Z,10.07
2022-10-28T21:36:24.498Z,10.82
2022-10-28T21:38:55.841Z,9.57
2022-10-28T21:41:25.855Z,10.23
2022-10-28T21:43:55.253Z,10.63
2022-10-28T21:46:24.576Z,10.55
2022-10-28T21:48:53.655Z,10.18
2022-10-28T21:51:23.986Z,10.45
2022-10-28T21:53:52.479Z,9.95
2022-10-28T21:56:21.363Z,10.00
2022-10-28T21:58:52.066Z,10.07
2022-10-28T22:01:22.972Z,9.38
2022-10-28T22:03:52.648Z,9.85
2022-10-28T22:06:21.087Z,9.32
2022-10-28T22:08:49.528Z,9.25
2022-10-28T22:11:20.978Z,10.70
2022-10-28T22:13:58.446Z,9.18
2022-10-28T22:16:28.746Z,9.90
2022-10-28T22:18:58.725Z,10.25
2022-10-28T22:21:29.248Z,8.75
2022-10-28T22:23:57.625Z,9.18
2022-10-28T22:26:28.791Z,9.68
2022-10-28T22:28:58.553Z,10.98
2022-10-28T22:31:29.164Z,10.13
2022-10-28T22:33:57.744Z,10.32
2022-10-28T22:36:31.489Z,9.85
2022-10-28T22:39:00.145Z,9.60
2022-10-28T22:41:30.693Z,8.68
2022-10-28T22:44:04.589Z,9.55
2022-10-28T22:46:36.513Z,9.15
2022-10-28T22:49:05.419Z,9.18
2022-10-28T22:51:34.001Z,8.95
2022-10-28T22:54:02.276Z,8.52
2022-10-28T22:56:30.651Z,9.73
2022-10-28T22:59:02.901Z,10.15
2022-10-28T23:01:31.489Z,9.82
2022-10-28T23:04:00.947Z,9.77
2022-10-28T23:06:30.135Z,8.75
2022-10-28T23:08:58.808Z,10.05
2022-10-28T23:11:26.971Z,9.02
2022-10-28T23:13:56.323Z,9.57
2022-10-28T23:16:26.168Z,9.50
2022-10-28T23:18:54.280Z,8.90
2022-10-28T23:21:25.399Z,9.30
2022-10-28T23:23:57.069Z,8.52
2022-10-28T23:26:26.413Z,8.70
2022-10-28T23:28:57.248Z,8.77
2022-10-28T23:31:30.334Z,8.70
2022-10-28T23:33:59.223Z,8.02
2022-10-28T23:36:27.500Z,7.50
2022-10-28T23:38:57.763Z,8.25
2022-10-28T23:41:26.257Z,7.47
2022-10-28T23:43:54.526Z,7.70
2022-10-28T23:46:22.648Z,7.57
2022-10-28T23:48:52.273Z,7.30
2022-10-28T23:51:21.098Z,7.68
2022-10-28T23:53:49.264Z,7.10
2022-10-28T23:56:17.535Z,8.32
2022-10-28T23:58:45.734Z,8.68
